Time;durP1;ratioP1;P1;durP2;ratioP2;P2;SDS_P1;SDS_P2;PMS_P1;PMS_P2;Temp;Humidity;BMP_temperature;BMP_pressure;BME280_temperature;BME280_humidity;BME280_pressure;Samples;Min_cycle;Max_cycle;Signal;HPM_P1;HPM_P2
2021/06/08 00:01:24;;;;;;;24.73;22.63;;;;;;;16.00;100.00;98384.47;5122280;27;20660;-69
2021/06/08 00:03:52;;;;;;;24.37;22.20;;;;;;;15.95;100.00;98378.84;5121832;27;20212;-70
2021/06/08 00:06:19;;;;;;;23.67;21.73;;;;;;;15.92;100.00;98388.09;5117182;27;20221;-70
2021/06/08 00:08:47;;;;;;;23.20;21.20;;;;;;;16.04;100.00;98383.91;5121632;27;20220;-70
2021/06/08 00:11:16;;;;;;;24.93;22.90;;;;;;;16.04;100.00;98383.06;5119205;27;20205;-71
2021/06/08 00:13:45;;;;;;;25.60;23.40;;;;;;;15.95;100.00;98390.38;5122904;27;20205;-68
2021/06/08 00:16:12;;;;;;;24.67;22.63;;;;;;;15.94;100.00;98385.22;5121025;27;20227;-69
2021/06/08 00:18:40;;;;;;;23.90;21.80;;;;;;;15.88;100.00;98381.44;5122883;27;20779;-68
2021/06/08 00:21:07;;;;;;;25.33;23.33;;;;;;;16.02;100.00;98382.41;5122543;27;20201;-69
2021/06/08 00:23:35;;;;;;;23.40;21.50;;;;;;;15.91;100.00;98381.91;5119632;27;20196;-70
2021/06/08 00:26:03;;;;;;;23.97;22.03;;;;;;;16.02;100.00;98380.59;5120859;27;20224;-69
2021/06/08 00:28:30;;;;;;;25.23;23.03;;;;;;;15.80;100.00;98386.88;5117283;27;20205;-69
2021/06/08 00:30:59;;;;;;;25.57;23.20;;;;;;;15.86;100.00;98378.94;5115333;27;20208;-70
2021/06/08 00:33:27;;;;;;;24.33;22.13;;;;;;;15.90;100.00;98385.59;5121455;27;20205;-70
2021/06/08 00:35:55;;;;;;;23.67;21.67;;;;;;;15.85;100.00;98382.63;5119387;27;20220;-71
2021/06/08 00:38:22;;;;;;;25.57;23.27;;;;;;;15.82;100.00;98380.34;5119452;27;20389;-71
2021/06/08 00:40:49;;;;;;;25.60;23.23;;;;;;;15.77;100.00;98385.44;5118379;27;20201;-69
2021/06/08 00:43:17;;;;;;;25.60;23.30;;;;;;;15.69;100.00;98369.50;5120705;27;20731;-69
2021/06/08 00:45:44;;;;;;;25.73;23.40;;;;;;;15.80;100.00;98370.84;5119580;27;20228;-71
2021/06/08 00:48:14;;;;;;;24.07;22.17;;;;;;;15.78;100.00;98373.72;5118058;27;20242;-72
2021/06/08 00:50:42;;;;;;;25.27;23.27;;;;;;;15.75;100.00;98360.75;5122303;27;20208;-68
2021/06/08 00:53:09;;;;;;;24.90;22.80;;;;;;;15.71;100.00;98375.47;5121352;27;20368;-70
2021/06/08 00:55:37;;;;;;;25.23;23.23;;;;;;;15.61;100.00;98365.09;5119407;27;20224;-70
2021/06/08 00:58:04;;;;;;;24.53;22.43;;;;;;;15.58;100.00;98368.16;5119509;27;20225;-70
2021/06/08 01:00:44;;;;;;;24.40;22.40;;;;;;;15.75;100.00;98369.56;5118987;27;20344;-68
2021/06/08 01:03:13;;;;;;;26.00;23.70;;;;;;;15.68;100.00;98365.16;5122088;27;20294;-70
2021/06/08 01:05:41;;;;;;;26.40;24.00;;;;;;;15.69;100.00;98364.97;5118549;27;20376;-69
2021/06/08 01:08:08;;;;;;;23.47;21.57;;;;;;;15.80;100.00;98355.66;5122132;27;20200;-70
2021/06/08 01:10:35;;;;;;;25.53;23.17;;;;;;;15.74;100.00;98357.22;5120465;27;20212;-68
2021/06/08 01:13:03;;;;;;;26.60;24.30;;;;;;;15.75;100.00;98356.22;5117973;27;20201;-70
2021/06/08 01:15:30;;;;;;;26.77;24.53;;;;;;;15.81;100.00;98354.63;5122428;27;20442;-69
2021/06/08 01:17:59;;;;;;;25.50;23.40;;;;;;;15.76;100.00;98354.38;5121612;27;20240;-69
2021/06/08 01:20:28;;;;;;;25.10;22.87;;;;;;;15.70;100.00;98353.28;5120311;27;20213;-72
2021/06/08 01:22:57;;;;;;;26.70;24.33;;;;;;;15.83;100.00;98351.75;5119826;27;20204;-70
2021/06/08 01:25:25;;;;;;;26.53;24.10;;;;;;;15.62;100.00;98342.72;5120743;27;20224;-69
2021/06/08 01:27:53;;;;;;;24.90;22.67;;;;;;;15.65;100.00;98346.84;5118055;27;20423;-70
2021/06/08 01:30:23;;;;;;;25.07;23.00;;;;;;;15.72;100.00;98345.06;5118098;27;20591;-67
2021/06/08 01:32:52;;;;;;;25.90;23.80;;;;;;;15.73;100.00;98344.06;5112508;27;20201;-70
2021/06/08 01:35:20;;;;;;;26.73;24.43;;;;;;;15.66;100.00;98344.00;5114208;27;20224;-70
2021/06/08 01:37:49;;;;;;;24.80;22.70;;;;;;;15.72;100.00;98340.56;5116242;27;20292;-68
2021/06/08 01:40:19;;;;;;;25.10;23.07;;;;;;;15.69;100.00;98338.28;5116991;27;20197;-69
2021/06/08 01:42:48;;;;;;;26.03;23.57;;;;;;;15.84;100.00;98353.41;5118546;27;20201;-70
2021/06/08 01:45:17;;;;;;;27.50;25.03;;;;;;;15.71;100.00;98343.41;5116071;27;20224;-70
2021/06/08 01:47:44;;;;;;;28.27;25.53;;;;;;;15.73;100.00;98344.06;5120303;27;20204;-68
2021/06/08 01:50:12;;;;;;;27.70;25.33;;;;;;;15.68;100.00;98349.13;5118991;27;20201;-68
2021/06/08 01:52:43;;;;;;;28.10;25.67;;;;;;;15.57;100.00;98345.94;5121354;27;20205;-69
2021/06/08 01:55:14;;;;;;;27.20;24.67;;;;;;;15.82;100.00;98348.28;5120711;27;20229;-69
2021/06/08 01:57:45;;;;;;;26.03;23.93;;;;;;;15.66;100.00;98348.50;5118246;27;20775;-69
2021/06/08 02:00:16;;;;;;;27.13;24.83;;;;;;;15.51;100.00;98356.53;5117844;27;20213;-68
2021/06/08 02:02:52;;;;;;;26.67;24.47;;;;;;;15.55;100.00;98350.66;5121679;27;20669;-70
2021/06/08 02:05:26;;;;;;;28.07;25.47;;;;;;;15.50;100.00;98355.72;5120536;27;20216;-67
2021/06/08 02:07:58;;;;;;;27.23;24.70;;;;;;;15.44;100.00;98353.81;5114038;27;20197;-70
2021/06/08 02:10:47;;;;;;;26.63;24.33;;;;;;;15.65;100.00;98353.03;5120879;27;20434;-70
2021/06/08 02:13:19;;;;;;;27.53;25.17;;;;;;;15.84;100.00;98356.09;5115661;27;20208;-72
2021/06/08 02:15:55;;;;;;;27.67;25.33;;;;;;;15.62;100.00;98356.06;5120602;27;20229;-72
2021/06/08 02:18:25;;;;;;;28.97;26.37;;;;;;;15.48;100.00;98344.41;5116299;27;20280;-70
2021/06/08 02:20:53;;;;;;;28.83;26.13;;;;;;;15.47;100.00;98342.75;5118365;27;20204;-70
2021/06/08 02:23:22;;;;;;;28.33;25.93;;;;;;;15.48;100.00;98352.41;5118093;27;20201;-70
2021/06/08 02:25:51;;;;;;;29.93;27.30;;;;;;;15.66;100.00;98349.34;5117338;27;20228;-68
2021/06/08 02:28:26;;;;;;;28.87;26.47;;;;;;;15.63;100.00;98347.84;5120897;28;20830;-68
2021/06/08 02:30:55;;;;;;;28.20;25.93;;;;;;;15.51;100.00;98357.38;5116046;27;20759;-71
2021/06/08 02:33:24;;;;;;;30.00;27.40;;;;;;;15.39;100.00;98354.34;5113974;28;20212;-72
2021/06/08 02:35:53;;;;;;;31.50;28.77;;;;;;;15.31;100.00;98363.28;5111345;27;20482;-69
2021/06/08 02:38:21;;;;;;;29.50;27.10;;;;;;;15.33;100.00;98365.78;5116819;27;20263;-70
2021/06/08 02:40:49;;;;;;;29.70;27.30;;;;;;;15.22;100.00;98372.41;5115684;27;20352;-69
2021/06/08 02:43:19;;;;;;;28.40;25.93;;;;;;;15.18;100.00;98366.63;5114745;28;20205;-70
2021/06/08 02:45:49;;;;;;;31.70;28.30;;;;;;;15.13;100.00;98365.50;5118380;27;20225;-72
2021/06/08 02:48:17;;;;;;;32.03;29.00;;;;;;;15.22;100.00;98369.75;5111164;27;20267;-70
2021/06/08 02:50:46;;;;;;;31.90;29.03;;;;;;;15.30;100.00;98366.16;5116001;27;20580;-69
2021/06/08 02:53:14;;;;;;;31.23;28.40;;;;;;;15.38;100.00;98367.91;5119200;27;20201;-69
2021/06/08 02:55:42;;;;;;;31.70;28.90;;;;;;;15.40;100.00;98373.88;5110189;27;20245;-71
2021/06/08 02:58:11;;;;;;;32.57;29.63;;;;;;;15.42;100.00;98378.00;5116976;27;20290;-67
2021/06/08 03:00:39;;;;;;;33.10;30.23;;;;;;;15.28;100.00;98376.19;5115276;27;20697;-71
2021/06/08 03:03:08;;;;;;;33.53;30.33;;;;;;;15.19;100.00;98381.63;5116981;27;20209;-71
2021/06/08 03:05:38;;;;;;;33.37;30.27;;;;;;;15.31;100.00;98379.31;5119645;27;20235;-69
2021/06/08 03:08:16;;;;;;;34.47;31.07;;;;;;;15.30;100.00;98377.66;5117412;27;20201;-70
2021/06/08 03:10:44;;;;;;;33.77;30.80;;;;;;;15.43;100.00;98390.34;5119254;27;20205;-69
2021/06/08 03:13:12;;;;;;;31.47;28.77;;;;;;;15.20;100.00;98395.78;5118607;27;20213;-69
2021/06/08 03:15:43;;;;;;;33.67;30.63;;;;;;;15.08;100.00;98386.59;5119150;27;20232;-68
2021/06/08 03:18:15;;;;;;;35.93;32.77;;;;;;;15.17;100.00;98391.66;5121413;27;20225;-71
2021/06/08 03:20:48;;;;;;;36.03;32.77;;;;;;;15.22;100.00;98393.75;5120987;27;20212;-71
2021/06/08 03:23:19;;;;;;;37.77;34.43;;;;;;;15.15;100.00;98388.34;5122294;27;20202;-69
2021/06/08 03:25:48;;;;;;;35.33;31.97;;;;;;;15.30;100.00;98396.34;5120013;27;20227;-70
2021/06/08 03:28:18;;;;;;;33.57;30.40;;;;;;;15.32;100.00;98394.31;5121127;27;20923;-69
2021/06/08 03:30:46;;;;;;;33.77;30.87;;;;;;;15.38;100.00;98390.06;5118652;27;20650;-69
2021/06/08 03:33:16;;;;;;;35.43;32.40;;;;;;;15.32;100.00;98394.31;5120076;27;20205;-69
2021/06/08 03:35:44;;;;;;;36.30;33.07;;;;;;;15.39;100.00;98396.25;5117933;27;20228;-72
2021/06/08 03:38:12;;;;;;;36.07;32.97;;;;;;;15.45;100.00;98398.19;5121549;27;20239;-72
2021/06/08 03:40:40;;;;;;;36.13;32.93;;;;;;;15.40;100.00;98401.41;5118219;27;20196;-71
2021/06/08 03:43:09;;;;;;;35.30;32.30;;;;;;;15.42;100.00;98407.38;5124598;27;20670;-71
2021/06/08 03:45:36;;;;;;;35.83;32.80;;;;;;;15.46;100.00;98410.53;5124543;27;20224;-74
2021/06/08 03:48:05;;;;;;;34.77;31.83;;;;;;;15.54;100.00;98406.94;5122437;27;20206;-73
2021/06/08 03:50:34;;;;;;;36.70;33.20;;;;;;;15.49;100.00;98408.28;5123181;27;20386;-71
2021/06/08 03:53:02;;;;;;;36.70;33.53;;;;;;;15.55;100.00;98417.41;5117400;27;20217;-71
2021/06/08 03:55:30;;;;;;;38.00;34.70;;;;;;;15.42;100.00;98409.25;5120917;27;20617;-71
2021/06/08 03:57:59;;;;;;;37.07;33.80;;;;;;;15.51;100.00;98409.94;5120750;27;20236;-71
2021/06/08 04:00:27;;;;;;;36.73;33.53;;;;;;;15.56;100.00;98416.41;5120445;27;20209;-72
2021/06/08 04:02:55;;;;;;;39.23;35.80;;;;;;;15.63;100.00;98409.28;5119433;27;20204;-71
2021/06/08 04:05:22;;;;;;;38.47;35.23;;;;;;;15.57;100.00;98410.03;5122698;27;20221;-71
2021/06/08 04:07:51;;;;;;;38.10;34.90;;;;;;;15.70;100.00;98411.22;5123079;27;20205;-71
2021/06/08 04:10:20;;;;;;;39.47;36.07;;;;;;;15.74;100.00;98416.00;5113616;27;20208;-73
2021/06/08 04:12:49;;;;;;;37.57;34.23;;;;;;;15.88;100.00;98414.34;5117677;27;20621;-72
2021/06/08 04:15:17;;;;;;;41.60;37.70;;;;;;;15.85;100.00;98414.72;5115038;27;20584;-71
2021/06/08 04:17:45;;;;;;;39.00;35.70;;;;;;;15.91;100.00;98411.31;5118184;27;20580;-72
2021/06/08 04:20:14;;;;;;;40.13;36.67;;;;;;;16.02;100.00;98415.34;5116524;27;20596;-71
2021/06/08 04:22:45;;;;;;;37.83;34.47;;;;;;;16.01;100.00;98416.34;5120713;27;20220;-72
2021/06/08 04:25:15;;;;;;;39.40;35.83;;;;;;;16.05;100.00;98419.47;5121727;27;20332;-71
2021/06/08 04:27:43;;;;;;;38.77;35.40;;;;;;;16.13;100.00;98422.03;5115617;27;20450;-72
2021/06/08 04:30:13;;;;;;;39.20;35.60;;;;;;;16.19;100.00;98428.47;5117140;27;20209;-72
2021/06/08 04:32:42;;;;;;;39.13;35.33;;;;;;;16.27;100.00;98425.66;5115542;27;20205;-71
2021/06/08 04:35:10;;;;;;;38.67;35.37;;;;;;;16.23;100.00;98420.91;5122332;27;20237;-72
2021/06/08 04:37:38;;;;;;;38.13;34.70;;;;;;;16.11;100.00;98426.75;5117141;27;20201;-72
2021/06/08 04:40:08;;;;;;;38.50;35.07;;;;;;;16.10;100.00;98427.78;5117971;27;20221;-71
2021/06/08 04:42:38;;;;;;;39.17;35.23;;;;;;;16.32;100.00;98425.09;5121833;27;20569;-72
2021/06/08 04:45:09;;;;;;;37.23;33.73;;;;;;;16.22;100.00;98432.59;5123275;27;20240;-71
2021/06/08 04:47:36;;;;;;;38.43;34.57;;;;;;;16.33;100.00;98430.28;5116630;27;20211;-72
2021/06/08 04:50:06;;;;;;;36.13;32.87;;;;;;;16.63;100.00;98430.09;5121600;27;20673;-72
2021/06/08 04:52:33;;;;;;;34.93;31.67;;;;;;;16.82;100.00;98435.84;5121086;27;20577;-72
2021/06/08 04:55:01;;;;;;;34.87;31.70;;;;;;;16.93;100.00;98439.84;5120907;27;20445;-71
2021/06/08 04:57:29;;;;;;;34.07;31.23;;;;;;;16.95;100.00;98436.94;5118360;27;20676;-72
2021/06/08 05:00:01;;;;;;;33.37;30.37;;;;;;;17.27;100.00;98442.78;5122401;27;20225;-72
2021/06/08 05:02:36;;;;;;;31.17;28.27;;;;;;;17.29;100.00;98436.22;5116518;27;20208;-72
2021/06/08 05:05:06;;;;;;;30.63;27.83;;;;;;;17.32;100.00;98437.66;5120016;27;20212;-73
2021/06/08 05:07:36;;;;;;;32.33;29.57;;;;;;;17.48;99.93;98432.00;5118464;27;20771;-72
2021/06/08 05:10:05;;;;;;;31.40;28.80;;;;;;;17.42;100.00;98438.09;5116540;27;20622;-73
2021/06/08 05:12:33;;;;;;;29.43;26.90;;;;;;;17.41;100.00;98435.66;5118790;27;20211;-71
2021/06/08 05:15:18;;;;;;;31.73;29.10;;;;;;;17.10;100.00;98436.88;5081343;27;20708;-75
2021/06/08 05:17:46;;;;;;;30.77;28.13;;;;;;;17.15;100.00;98442.47;5120145;27;20209;-73
2021/06/08 05:20:16;;;;;;;31.43;28.53;;;;;;;17.41;100.00;98430.28;5117476;27;20225;-72
2021/06/08 05:22:44;;;;;;;30.53;27.63;;;;;;;17.38;100.00;98439.53;5120077;27;20612;-72
2021/06/08 05:25:12;;;;;;;32.50;29.43;;;;;;;17.36;100.00;98442.44;5119085;27;20229;-73
2021/06/08 05:27:40;;;;;;;28.37;26.07;;;;;;;17.45;100.00;98436.91;5119695;27;20204;-72
2021/06/08 05:30:09;;;;;;;29.33;26.77;;;;;;;17.55;97.42;98440.03;5122351;27;20201;-73
2021/06/08 05:32:39;;;;;;;29.30;26.83;;;;;;;17.72;97.05;98445.09;5117943;27;20212;-71
2021/06/08 05:35:08;;;;;;;29.50;27.17;;;;;;;17.72;95.86;98447.75;5119971;27;20216;-71
2021/06/08 05:37:40;;;;;;;28.93;26.47;;;;;;;17.75;96.57;98450.03;5121817;27;20725;-72
2021/06/08 05:40:13;;;;;;;29.90;27.23;;;;;;;17.89;96.23;98450.94;5119713;27;20760;-71
2021/06/08 05:42:40;;;;;;;28.33;26.10;;;;;;;17.86;94.58;98451.34;5121625;27;20208;-72
2021/06/08 05:45:08;;;;;;;29.90;27.13;;;;;;;17.91;94.22;98444.31;5120284;27;20235;-74
2021/06/08 05:47:36;;;;;;;28.53;26.17;;;;;;;18.10;92.75;98443.78;5120392;27;20193;-72
2021/06/08 05:50:06;;;;;;;27.83;25.53;;;;;;;18.09;91.53;98440.31;5122048;27;20506;-73
2021/06/08 05:52:35;;;;;;;28.53;26.03;;;;;;;17.91;94.99;98447.00;5120163;27;20220;-73
2021/06/08 05:55:04;;;;;;;27.77;25.40;;;;;;;18.25;91.67;98446.31;5125456;27;20216;-74
2021/06/08 05:57:32;;;;;;;26.00;23.80;;;;;;;18.15;89.49;98438.66;5116285;27;20210;-73
2021/06/08 06:00:04;;;;;;;23.57;21.67;;;;;;;18.13;88.50;98433.50;5118551;27;20608;-72
2021/06/08 06:02:33;;;;;;;23.17;21.27;;;;;;;18.27;86.70;98441.56;5120358;27;20683;-75
2021/06/08 06:05:01;;;;;;;24.43;22.57;;;;;;;18.49;86.35;98442.22;5120615;27;20224;-73
2021/06/08 06:07:30;;;;;;;23.77;21.80;;;;;;;18.36;86.16;98443.88;5121309;27;20213;-73
2021/06/08 06:09:58;;;;;;;25.10;23.07;;;;;;;18.31;87.47;98440.13;5118549;27;20616;-71
2021/06/08 06:12:26;;;;;;;24.97;23.07;;;;;;;18.16;87.69;98438.47;5118869;27;20243;-74
2021/06/08 06:15:02;;;;;;;24.90;22.80;;;;;;;18.15;88.19;98439.50;5122089;27;20612;-75
2021/06/08 06:17:32;;;;;;;26.70;24.23;;;;;;;18.30;86.84;98438.47;5121844;27;20466;-71
2021/06/08 06:20:00;;;;;;;23.23;21.37;;;;;;;18.62;84.55;98444.09;5119047;27;20556;-74
2021/06/08 06:22:27;;;;;;;23.23;21.23;;;;;;;18.47;85.53;98438.94;5117329;27;20209;-72
2021/06/08 06:24:56;;;;;;;23.53;21.63;;;;;;;18.66;83.50;98448.03;5120624;27;20228;-72
2021/06/08 06:27:24;;;;;;;22.70;20.83;;;;;;;18.48;83.48;98441.41;5119092;27;20355;-73
2021/06/08 06:29:51;;;;;;;22.67;20.60;;;;;;;18.60;83.32;98444.34;5117149;27;20482;-71
2021/06/08 06:32:20;;;;;;;22.67;20.87;;;;;;;18.77;83.40;98439.38;5118808;27;20208;-73
2021/06/08 06:34:47;;;;;;;22.97;21.07;;;;;;;18.91;81.51;98439.38;5121169;27;20228;-73
2021/06/08 06:37:15;;;;;;;22.43;20.70;;;;;;;18.74;82.84;98439.78;5118536;27;20201;-74
2021/06/08 06:39:43;;;;;;;21.93;19.93;;;;;;;18.90;80.05;98448.47;5119727;27;20225;-73
2021/06/08 06:42:13;;;;;;;23.07;21.13;;;;;;;19.01;81.63;98445.16;5119603;27;20532;-71
2021/06/08 06:44:41;;;;;;;22.37;20.67;;;;;;;18.85;82.36;98449.06;5121188;27;20216;-73
2021/06/08 06:47:10;;;;;;;22.47;20.57;;;;;;;19.16;80.54;98447.63;5125956;27;20211;-75
2021/06/08 06:49:38;;;;;;;22.20;20.33;;;;;;;19.31;79.78;98454.63;5121061;27;20200;-74
2021/06/08 06:52:06;;;;;;;22.90;21.20;;;;;;;19.31;80.33;98451.94;5120026;27;20563;-73
2021/06/08 06:54:33;;;;;;;21.63;19.93;;;;;;;19.49;77.73;98445.91;5119598;27;20209;-73
2021/06/08 06:57:01;;;;;;;21.33;19.63;;;;;;;19.48;76.87;98445.09;5121904;27;20208;-75
2021/06/08 06:59:30;;;;;;;20.13;18.53;;;;;;;19.45;78.48;98450.06;5120770;27;20221;-72
2021/06/08 07:01:58;;;;;;;22.17;20.13;;;;;;;19.52;78.71;98448.22;5120721;27;20203;-74
2021/06/08 07:04:26;;;;;;;20.80;19.00;;;;;;;19.57;78.19;98450.25;5123466;27;20296;-72
2021/06/08 07:06:54;;;;;;;19.73;17.97;;;;;;;19.56;79.39;98445.91;5125842;27;20205;-74
2021/06/08 07:09:24;;;;;;;22.23;19.90;;;;;;;19.83;75.24;98446.63;5121156;27;20204;-72
2021/06/08 07:11:52;;;;;;;20.47;18.30;;;;;;;19.84;76.80;98450.16;5118801;27;20197;-71
2021/06/08 07:14:20;;;;;;;20.37;18.67;;;;;;;19.61;74.80;98452.31;5121183;27;20400;-73
2021/06/08 07:16:50;;;;;;;20.47;18.57;;;;;;;19.83;75.70;98452.00;5123226;27;20200;-74
2021/06/08 07:19:19;;;;;;;19.70;18.00;;;;;;;19.78;76.31;98460.72;5116707;27;20225;-74
2021/06/08 07:21:47;;;;;;;20.80;19.20;;;;;;;19.66;77.05;98448.97;5122946;27;20201;-72
2021/06/08 07:24:15;;;;;;;21.13;19.63;;;;;;;19.85;75.49;98454.50;5123022;27;20667;-73
2021/06/08 07:26:43;;;;;;;20.60;19.00;;;;;;;19.81;74.86;98448.72;5124444;27;20224;-72
2021/06/08 07:29:11;;;;;;;20.67;19.07;;;;;;;19.77;75.05;98450.19;5124629;27;20211;-72
2021/06/08 07:31:50;;;;;;;20.33;18.43;;;;;;;20.03;73.91;98449.25;5122388;27;20197;-71
2021/06/08 07:34:25;;;;;;;20.50;18.80;;;;;;;19.96;74.17;98459.22;5122001;27;20208;-73
2021/06/08 07:36:55;;;;;;;20.60;18.80;;;;;;;19.92;74.16;98452.63;5121001;27;20207;-72
2021/06/08 07:39:28;;;;;;;20.43;18.60;;;;;;;19.98;73.40;98454.47;5117886;27;20246;-74
2021/06/08 07:42:01;;;;;;;19.73;17.73;;;;;;;19.99;75.17;98448.03;5123732;27;20695;-73
2021/06/08 07:44:31;;;;;;;18.60;17.10;;;;;;;20.07;73.57;98452.38;5121130;27;20211;-72
2021/06/08 07:47:02;;;;;;;17.83;16.33;;;;;;;20.07;74.64;98458.56;5117792;27;20681;-72
2021/06/08 07:49:30;;;;;;;18.20;16.47;;;;;;;20.30;74.83;98446.44;5122995;27;20679;-72
2021/06/08 07:51:58;;;;;;;18.30;16.90;;;;;;;20.53;74.07;98453.13;5123306;27;20584;-70
2021/06/08 07:54:27;;;;;;;18.23;16.83;;;;;;;20.51;71.97;98456.03;5121886;27;20661;-72
2021/06/08 07:56:55;;;;;;;18.67;17.27;;;;;;;20.49;71.42;98450.03;5125081;27;20205;-73
2021/06/08 07:59:22;;;;;;;17.50;16.13;;;;;;;20.65;70.99;98448.69;5118441;27;20368;-74
2021/06/08 08:01:50;;;;;;;17.07;15.87;;;;;;;20.96;69.51;98440.81;5122004;27;20208;-74
2021/06/08 08:04:20;;;;;;;18.20;16.70;;;;;;;21.06;70.49;98445.69;5122969;27;20206;-71
2021/06/08 08:06:49;;;;;;;18.60;16.90;;;;;;;20.92;68.08;98448.53;5121447;27;20221;-72
2021/06/08 08:09:18;;;;;;;17.33;16.03;;;;;;;21.09;68.46;98446.09;5123557;27;20228;-73
2021/06/08 08:11:46;;;;;;;18.00;16.67;;;;;;;21.31;68.50;98445.66;5122385;27;20204;-72
2021/06/08 08:14:15;;;;;;;16.63;15.13;;;;;;;21.30;68.98;98453.97;5122391;27;20369;-71
2021/06/08 08:16:45;;;;;;;17.30;16.00;;;;;;;21.57;66.70;98449.13;5121197;27;20220;-74
2021/06/08 08:19:13;;;;;;;17.30;16.10;;;;;;;21.61;65.76;98454.91;5116702;27;20209;-74
2021/06/08 08:21:42;;;;;;;18.63;17.07;;;;;;;21.43;68.70;98443.06;5122441;27;20201;-73
2021/06/08 08:24:10;;;;;;;17.30;16.10;;;;;;;21.45;67.39;98446.34;5123493;27;20580;-71
2021/06/08 08:26:39;;;;;;;17.50;16.10;;;;;;;21.35;68.23;98456.84;5124135;27;20232;-73
2021/06/08 08:29:07;;;;;;;16.43;15.00;;;;;;;21.56;69.38;98447.47;5122679;27;20668;-74
2021/06/08 08:31:37;;;;;;;14.87;13.87;;;;;;;21.76;68.23;98451.84;5123119;27;20238;-73
2021/06/08 08:34:05;;;;;;;16.37;15.07;;;;;;;21.90;66.50;98445.25;5121853;27;20826;-74
2021/06/08 08:36:36;;;;;;;16.67;15.33;;;;;;;21.91;66.03;98452.28;5120496;27;20228;-73
2021/06/08 08:39:07;;;;;;;17.40;16.00;;;;;;;21.91;64.56;98451.44;5126137;27;20203;-73
2021/06/08 08:41:34;;;;;;;15.93;14.73;;;;;;;21.94;64.44;98451.00;5115138;27;20387;-73
2021/06/08 08:44:03;;;;;;;16.17;14.97;;;;;;;22.19;63.88;98444.66;5120967;27;20208;-70
2021/06/08 08:46:30;;;;;;;16.87;15.53;;;;;;;22.31;62.97;98447.41;5121148;27;20708;-72
2021/06/08 08:48:58;;;;;;;15.30;14.30;;;;;;;22.03;66.38;98443.41;5121144;27;20366;-72
2021/06/08 08:51:27;;;;;;;14.93;13.83;;;;;;;22.34;62.71;98445.06;5120208;27;20200;-72
2021/06/08 08:53:57;;;;;;;15.47;14.23;;;;;;;22.49;64.38;98436.56;5122542;27;20235;-74
2021/06/08 08:56:28;;;;;;;14.80;13.80;;;;;;;22.61;63.86;98433.91;5120533;27;20216;-74
2021/06/08 08:58:55;;;;;;;15.67;14.40;;;;;;;22.79;62.77;98437.59;5121147;27;20212;-73
2021/06/08 09:01:23;;;;;;;14.87;13.67;;;;;;;23.01;60.95;98434.31;5118105;27;20702;-73
2021/06/08 09:03:51;;;;;;;15.37;14.13;;;;;;;23.25;59.06;98430.56;5116832;27;20206;-72
2021/06/08 09:06:19;;;;;;;14.67;13.53;;;;;;;23.18;60.50;98429.00;5116917;27;20209;-73
2021/06/08 09:08:47;;;;;;;15.57;14.03;;;;;;;23.46;57.08;98435.59;5123011;27;20213;-73
2021/06/08 09:11:14;;;;;;;13.73;12.63;;;;;;;23.53;54.56;98430.88;5113454;27;21149;-72
2021/06/08 09:13:43;;;;;;;12.60;11.70;;;;;;;23.63;54.60;98431.09;5121174;27;20257;-72
2021/06/08 09:16:12;;;;;;;14.07;12.77;;;;;;;23.75;56.40;98428.38;5119859;27;20216;-73
2021/06/08 09:18:39;;;;;;;13.17;12.17;;;;;;;23.85;53.46;98425.03;5121808;27;20205;-75
2021/06/08 09:21:15;;;;;;;12.60;11.60;;;;;;;23.59;53.06;98429.94;5121404;27;20213;-72
2021/06/08 09:23:43;;;;;;;13.30;12.37;;;;;;;23.64;54.99;98426.53;5122123;27;20633;-74
2021/06/08 09:26:11;;;;;;;15.00;13.90;;;;;;;24.08;53.88;98429.56;5118466;27;20231;-74
2021/06/08 09:28:39;;;;;;;14.23;13.03;;;;;;;23.67;54.91;98426.84;5121774;27;20867;-71
2021/06/08 09:31:11;;;;;;;15.33;14.23;;;;;;;23.78;55.06;98429.78;5117259;27;20198;-74
2021/06/08 09:33:40;;;;;;;15.67;14.47;;;;;;;23.64;56.66;98424.63;5116245;27;20204;-72
2021/06/08 09:36:09;;;;;;;15.33;14.13;;;;;;;24.07;53.85;98419.00;5123049;27;20231;-74
2021/06/08 09:38:44;;;;;;;15.17;13.97;;;;;;;23.56;53.57;98425.00;5121759;27;20208;-73
2021/06/08 09:41:14;;;;;;;14.40;13.20;;;;;;;23.40;53.70;98421.97;5120385;27;20216;-73
2021/06/08 09:43:48;;;;;;;14.63;13.43;;;;;;;23.34;55.83;98412.13;5122001;27;20212;-72
2021/06/08 09:46:18;;;;;;;14.13;13.03;;;;;;;23.81;53.10;98415.78;5118684;27;20297;-73
2021/06/08 09:48:53;;;;;;;13.30;12.20;;;;;;;23.88;53.41;98413.75;5121014;27;20204;-74
2021/06/08 09:51:22;;;;;;;13.20;12.10;;;;;;;23.76;52.60;98410.25;5117365;27;20197;-72
2021/06/08 09:53:50;;;;;;;13.20;12.20;;;;;;;23.94;51.07;98404.66;5121048;27;20240;-74
2021/06/08 09:56:19;;;;;;;12.67;11.67;;;;;;;24.04;52.26;98409.47;5120134;27;20230;-73
2021/06/08 09:58:48;;;;;;;12.23;11.23;;;;;;;24.35;51.72;98411.91;5120445;27;20200;-73
2021/06/08 10:01:20;;;;;;;11.63;10.83;;;;;;;24.22;51.92;98407.63;5113886;27;20292;-75
2021/06/08 10:03:50;;;;;;;12.13;11.23;;;;;;;24.40;51.02;98402.00;5120500;27;20630;-71
2021/06/08 10:06:20;;;;;;;11.87;10.97;;;;;;;24.44;49.57;98396.91;5122813;27;20221;-73
2021/06/08 10:08:53;;;;;;;13.17;12.27;;;;;;;24.47;49.80;98404.56;5120436;27;20213;-73
2021/06/08 10:11:23;;;;;;;12.47;11.60;;;;;;;24.41;49.76;98409.06;5116911;27;20205;-73
2021/06/08 10:13:57;;;;;;;13.10;12.20;;;;;;;24.61;50.73;98402.31;5113146;27;20316;-74
2021/06/08 10:16:32;;;;;;;13.77;12.67;;;;;;;24.47;51.22;98392.88;5116892;27;20564;-71
2021/06/08 10:19:01;;;;;;;13.70;12.67;;;;;;;24.45;50.64;98397.72;5126574;27;20755;-74
2021/06/08 10:21:40;;;;;;;14.00;13.00;;;;;;;24.31;52.16;98403.47;5125636;27;20220;-72
2021/06/08 10:24:10;;;;;;;14.23;13.03;;;;;;;24.26;51.64;98400.69;5125535;27;20223;-73
2021/06/08 10:26:39;;;;;;;13.67;12.77;;;;;;;24.22;50.64;98402.19;5127476;27;20761;-73
2021/06/08 10:29:08;;;;;;;13.13;11.93;;;;;;;24.31;52.28;98394.50;5127749;27;20223;-73
2021/06/08 10:31:38;;;;;;;13.47;12.43;;;;;;;24.94;50.01;98386.34;5125428;27;20193;-73
2021/06/08 10:34:10;;;;;;;13.33;12.17;;;;;;;25.24;50.35;98394.09;5127199;27;20204;-73
2021/06/08 10:36:39;;;;;;;14.10;13.10;;;;;;;24.97;48.78;98377.72;5124791;27;20251;-73
2021/06/08 10:39:10;;;;;;;13.00;11.93;;;;;;;25.24;48.73;98385.94;5126966;27;20588;-74
2021/06/08 10:41:38;;;;;;;14.10;13.10;;;;;;;25.71;46.33;98389.25;5126309;27;20216;-74
2021/06/08 10:44:07;;;;;;;13.53;12.53;;;;;;;25.48;48.10;98383.03;5126093;27;20200;-73
2021/06/08 10:46:40;;;;;;;13.50;12.60;;;;;;;26.35;44.88;98385.06;5128256;27;20224;-73
2021/06/08 10:49:08;;;;;;;14.33;13.23;;;;;;;27.19;42.71;98375.63;5126850;27;20280;-72
2021/06/08 10:51:37;;;;;;;12.30;11.50;;;;;;;26.71;45.84;98379.13;5127217;27;20216;-74
2021/06/08 10:54:17;;;;;;;13.87;12.77;;;;;;;27.41;42.49;98378.97;5126402;27;20204;-73
2021/06/08 10:56:57;;;;;;;12.70;11.87;;;;;;;27.76;41.94;98374.00;5126026;27;20228;-74
2021/06/08 10:59:34;;;;;;;12.63;11.43;;;;;;;27.85;42.32;98369.66;5124028;27;20748;-73
2021/06/08 11:02:04;;;;;;;12.53;11.53;;;;;;;27.37;42.56;98371.63;5126932;27;20743;-73
2021/06/08 11:04:56;;;;;;;11.90;11.10;;;;;;;28.43;40.39;98365.13;5124491;27;20204;-73
2021/06/08 11:07:51;;;;;;;12.03;11.13;;;;;;;28.03;41.29;98368.31;5106088;27;20205;-71
2021/06/08 11:10:58;;;;;;;12.53;11.43;;;;;;;27.78;40.10;98366.38;5128238;27;20208;-71
2021/06/08 11:13:54;;;;;;;11.63;10.63;;;;;;;28.21;40.38;98370.84;5125617;27;20265;-71
2021/06/08 11:16:35;;;;;;;11.57;10.73;;;;;;;28.11;39.12;98364.25;5122116;27;20220;-72
2021/06/08 11:19:04;;;;;;;10.90;10.20;;;;;;;27.61;40.32;98360.31;5129667;27;20706;-71
2021/06/08 11:21:34;;;;;;;11.63;10.83;;;;;;;27.67;39.92;98359.28;5126610;27;20540;-73
2021/06/08 11:24:02;;;;;;;11.97;10.90;;;;;;;27.44;39.83;98364.03;5127278;27;20197;-71
2021/06/08 11:26:51;;;;;;;11.20;10.33;;;;;;;26.62;41.65;98361.63;5126853;27;20225;-70